Terminal Aerodrome Forecast
Issued by NWS

Home | Current Version | Previous Version | Text Only | Print | Product List | Glossary On
Versions: 1 2 3 4 5 6 7 8 9 10 11 12 13 14 15 16 17 18 19 20 21 22 23 24 25 26 27
747
FTUS46 KSGX 010520
TAFSAN
TAF
KSAN 010520Z 0106/0212 21005KT P6SM FEW012 OVC016
     FM011000 VRB04KT P6SM OVC012
     FM012100 24008KT P6SM OVC014
     FM020200 VRB04KT P6SM OVC012
     FM021000 VRB03KT P6SM OVC009=

USA.gov is the U.S. government's official web portal to all federal, state and local government web resources and services.